createdAt,value
2018-08-23T00:00:39.383Z,1007.32
2018-08-23T00:01:39.373Z,1007.29
2018-08-23T00:02:39.363Z,1007.29
2018-08-23T00:03:39.379Z,1007.25
2018-08-23T00:04:39.348Z,1007.24
2018-08-23T00:05:39.335Z,1007.22
2018-08-23T00:06:39.327Z,1007.2
2018-08-23T00:07:39.322Z,1007.2
2018-08-23T00:08:39.334Z,1007.2
2018-08-23T00:09:39.299Z,1007.2
2018-08-23T00:10:39.292Z,1007.21
2018-08-23T00:11:39.292Z,1007.16
2018-08-23T00:12:39.273Z,1007.15
2018-08-23T00:13:39.285Z,1007.16
2018-08-23T00:14:39.281Z,1007.15
2018-08-23T00:15:39.244Z,1007.16
2018-08-23T00:16:39.289Z,1007.15
2018-08-23T00:17:39.230Z,1007.12
2018-08-23T00:18:39.221Z,1007.12
2018-08-23T00:19:39.209Z,1007.11
2018-08-23T00:20:39.199Z,1007.13
2018-08-23T00:21:39.189Z,1007.13
2018-08-23T00:22:39.179Z,1007.12
2018-08-23T00:23:39.189Z,1007.13
2018-08-23T00:24:39.162Z,1007.14
2018-08-23T00:25:39.151Z,1007.15
2018-08-23T00:26:39.144Z,1007.11
2018-08-23T00:27:39.136Z,1007.11
2018-08-23T00:28:39.124Z,1007.12
2018-08-23T00:29:39.120Z,1007.08
2018-08-23T00:30:39.107Z,1007.08
2018-08-23T00:31:39.097Z,1007.04
2018-08-23T00:32:39.090Z,1006.99
2018-08-23T00:33:39.082Z,1006.98
2018-08-23T00:34:39.069Z,1006.99
2018-08-23T00:35:39.061Z,1006.95
2018-08-23T00:36:39.051Z,1006.92
2018-08-23T00:37:39.042Z,1006.93
2018-08-23T00:38:39.032Z,1006.89
2018-08-23T00:39:39.027Z,1006.93
2018-08-23T00:40:39.013Z,1006.89
2018-08-23T00:41:39.003Z,1006.88
2018-08-23T00:42:38.995Z,1006.9
2018-08-23T00:43:38.984Z,1006.89
2018-08-23T00:44:38.976Z,1006.88
2018-08-23T00:45:38.966Z,1006.87
2018-08-23T00:46:38.960Z,1006.88
2018-08-23T00:47:38.947Z,1006.88
2018-08-23T00:48:38.937Z,1006.85
2018-08-23T00:49:38.932Z,1006.87
2018-08-23T00:50:38.921Z,1006.83
2018-08-23T00:51:38.910Z,1006.83
2018-08-23T00:52:38.900Z,1006.83
2018-08-23T00:53:39.098Z,1006.81
2018-08-23T00:54:38.883Z,1006.85
2018-08-23T00:55:38.873Z,1006.9
2018-08-23T00:56:38.866Z,1006.85
2018-08-23T00:57:38.854Z,1006.83
2018-08-23T00:58:38.842Z,1006.82
2018-08-23T00:59:38.834Z,1006.8
2018-08-23T01:00:38.826Z,1006.83
2018-08-23T01:01:38.818Z,1006.79
2018-08-23T01:02:38.805Z,1006.77
2018-08-23T01:03:38.796Z,1006.73
2018-08-23T01:04:38.787Z,1006.79
2018-08-23T01:05:38.779Z,1006.75
2018-08-23T01:06:38.767Z,1006.79
2018-08-23T01:07:38.764Z,1006.76
2018-08-23T01:08:38.748Z,1006.76
2018-08-23T01:09:38.739Z,1006.74
2018-08-23T01:10:38.729Z,1006.78
2018-08-23T01:11:38.722Z,1006.76
2018-08-23T01:12:38.716Z,1006.75
2018-08-23T01:13:38.701Z,1006.76
2018-08-23T01:14:38.689Z,1006.73
2018-08-23T01:15:38.679Z,1006.71
2018-08-23T01:16:38.676Z,1006.68
2018-08-23T01:17:38.661Z,1006.7
2018-08-23T01:18:38.657Z,1006.69
2018-08-23T01:19:38.641Z,1006.7
2018-08-23T01:20:38.632Z,1006.72
2018-08-23T01:21:38.623Z,1006.68
2018-08-23T01:22:38.616Z,1006.7
2018-08-23T01:23:38.607Z,1006.71
2018-08-23T01:24:38.593Z,1006.69
2018-08-23T01:25:38.589Z,1006.72
2018-08-23T01:26:38.577Z,1006.73
2018-08-23T01:27:38.567Z,1006.71
2018-08-23T01:28:38.553Z,1006.71
2018-08-23T01:29:38.547Z,1006.69
2018-08-23T01:30:38.534Z,1006.75
2018-08-23T01:31:38.528Z,1006.71
2018-08-23T01:32:38.514Z,1006.71
2018-08-23T01:33:38.510Z,1006.7
2018-08-23T01:34:38.496Z,1006.67
2018-08-23T01:35:38.485Z,1006.7
2018-08-23T01:36:38.478Z,1006.68
2018-08-23T01:37:38.465Z,1006.67
2018-08-23T01:38:38.457Z,1006.69
2018-08-23T01:39:38.447Z,1006.64
2018-08-23T01:40:38.436Z,1006.65
2018-08-23T01:41:38.430Z,1006.65
2018-08-23T01:42:38.424Z,1006.6
2018-08-23T01:43:38.411Z,1006.6
2018-08-23T01:44:38.405Z,1006.55
2018-08-23T01:45:38.387Z,1006.55
2018-08-23T01:46:38.377Z,1006.51
2018-08-23T01:47:38.371Z,1006.54
2018-08-23T01:48:38.358Z,1006.53
2018-08-23T01:49:38.349Z,1006.48
2018-08-23T01:50:38.340Z,1006.49
2018-08-23T01:51:38.331Z,1006.47
2018-08-23T01:52:38.319Z,1006.47
2018-08-23T01:53:38.313Z,1006.48
2018-08-23T01:54:38.299Z,1006.49
2018-08-23T01:55:38.290Z,1006.43
2018-08-23T01:56:38.283Z,1006.47
2018-08-23T01:57:38.271Z,1006.48
2018-08-23T01:58:38.262Z,1006.47
2018-08-23T01:59:38.250Z,1006.46
2018-08-23T02:00:38.241Z,1006.44
2018-08-23T02:01:38.231Z,1006.45
2018-08-23T02:02:38.218Z,1006.43
2018-08-23T02:03:38.208Z,1006.41
2018-08-23T02:04:38.200Z,1006.44
2018-08-23T02:05:38.189Z,1006.41
2018-08-23T02:06:38.197Z,1006.41
2018-08-23T02:07:38.169Z,1006.41
2018-08-23T02:08:38.158Z,1006.38
2018-08-23T02:09:38.148Z,1006.4
2018-08-23T02:10:38.139Z,1006.39
2018-08-23T02:11:38.128Z,1006.38
2018-08-23T02:12:38.119Z,1006.34
2018-08-23T02:13:38.112Z,1006.34
2018-08-23T02:14:38.100Z,1006.39
2018-08-23T02:15:38.086Z,1006.41
2018-08-23T02:16:38.078Z,1006.39
2018-08-23T02:17:38.066Z,1006.4
2018-08-23T02:18:38.058Z,1006.45
2018-08-23T02:19:38.049Z,1006.39
2018-08-23T02:20:38.036Z,1006.39
2018-08-23T02:21:38.041Z,1006.35
2018-08-23T02:22:38.016Z,1006.34
2018-08-23T02:23:38.004Z,1006.34
2018-08-23T02:24:38.004Z,1006.31
2018-08-23T02:25:37.999Z,1006.35
2018-08-23T02:26:37.977Z,1006.33
2018-08-23T02:27:37.965Z,1006.34
2018-08-23T02:28:37.957Z,1006.28
2018-08-23T02:29:37.946Z,1006.31
2018-08-23T02:30:37.935Z,1006.29
2018-08-23T02:31:37.923Z,1006.23
2018-08-23T02:32:37.916Z,1006.22
2018-08-23T02:33:37.903Z,1006.24
2018-08-23T02:34:37.893Z,1006.24
2018-08-23T02:35:37.883Z,1006.27
2018-08-23T02:36:37.873Z,1006.26
2018-08-23T02:37:37.861Z,1006.25
2018-08-23T02:38:37.857Z,1006.25
2018-08-23T02:39:37.842Z,1006.21
2018-08-23T02:40:37.832Z,1006.22
2018-08-23T02:41:37.821Z,1006.2
2018-08-23T02:42:37.814Z,1006.21
2018-08-23T02:43:37.801Z,1006.2
2018-08-23T02:44:37.830Z,1006.19
2018-08-23T02:45:37.786Z,1006.15
2018-08-23T02:46:37.772Z,1006.2
2018-08-23T02:47:37.759Z,1006.15
2018-08-23T02:48:37.748Z,1006.16
2018-08-23T02:49:37.742Z,1006.15
2018-08-23T02:50:37.739Z,1006.14
2018-08-23T02:51:37.717Z,1006.15
2018-08-23T02:52:37.705Z,1006.14
2018-08-23T02:53:37.902Z,1006.11
2018-08-23T02:54:37.687Z,1006.12
2018-08-23T02:55:37.676Z,1006.07
2018-08-23T02:56:37.664Z,1006.1
2018-08-23T02:57:37.659Z,1006.09
2018-08-23T02:58:37.649Z,1006.08
2018-08-23T02:59:37.633Z,1006.04
2018-08-23T03:00:37.696Z,1006.01
2018-08-23T03:01:37.611Z,1006.02
2018-08-23T03:02:37.610Z,1005.96
2018-08-23T03:03:37.591Z,1005.96
2018-08-23T03:04:37.581Z,1005.96
2018-08-23T03:05:37.571Z,1005.96
2018-08-23T03:06:37.560Z,1005.94
2018-08-23T03:07:37.549Z,1005.96
2018-08-23T03:08:37.540Z,1005.91
2018-08-23T03:09:37.537Z,1005.9
2018-08-23T03:10:37.517Z,1005.85
2018-08-23T03:11:37.507Z,1005.86
2018-08-23T03:12:37.501Z,1005.85
2018-08-23T03:13:37.490Z,1005.86
2018-08-23T03:14:37.484Z,1005.84
2018-08-23T03:15:37.469Z,1005.8
2018-08-23T03:16:37.458Z,1005.79
2018-08-23T03:17:37.445Z,1005.77
2018-08-23T03:18:37.437Z,1005.76
2018-08-23T03:19:37.423Z,1005.72
2018-08-23T03:20:37.412Z,1005.75
2018-08-23T03:21:37.407Z,1005.75
2018-08-23T03:22:37.392Z,1005.73
2018-08-23T03:23:37.380Z,1005.73
2018-08-23T03:24:37.368Z,1005.79
2018-08-23T03:25:37.357Z,1005.7
2018-08-23T03:26:37.354Z,1005.73
2018-08-23T03:27:37.346Z,1005.73
2018-08-23T03:28:37.326Z,1005.74
2018-08-23T03:29:37.316Z,1005.73
2018-08-23T03:30:37.306Z,1005.76
2018-08-23T03:31:37.293Z,1005.75
2018-08-23T03:32:37.284Z,1005.76
2018-08-23T03:33:37.272Z,1005.76
2018-08-23T03:34:37.261Z,1005.73
2018-08-23T03:35:37.253Z,1005.76
2018-08-23T03:36:37.240Z,1005.72
2018-08-23T03:37:37.231Z,1005.7
2018-08-23T03:38:37.217Z,1005.69
2018-08-23T03:39:37.205Z,1005.72
2018-08-23T03:40:37.196Z,1005.7
2018-08-23T03:41:37.187Z,1005.71
2018-08-23T03:42:37.175Z,1005.73
2018-08-23T03:43:37.163Z,1005.74
2018-08-23T03:44:37.152Z,1005.74
2018-08-23T03:45:37.141Z,1005.73
2018-08-23T03:46:37.129Z,1005.74
2018-08-23T03:47:37.119Z,1005.74
2018-08-23T03:48:37.108Z,1005.78
2018-08-23T03:49:37.103Z,1005.77
2018-08-23T03:50:37.086Z,1005.77
2018-08-23T03:51:37.073Z,1005.81
2018-08-23T03:52:37.124Z,1005.8
2018-08-23T03:53:37.054Z,1005.8
2018-08-23T03:54:37.040Z,1005.8
2018-08-23T03:55:37.035Z,1005.8
2018-08-23T03:56:37.019Z,1005.81
2018-08-23T03:57:37.007Z,1005.81
2018-08-23T03:58:36.998Z,1005.79
2018-08-23T03:59:36.986Z,1005.8
2018-08-23T04:00:36.979Z,1005.81
2018-08-23T04:01:36.964Z,1005.78
2018-08-23T04:02:36.954Z,1005.75
2018-08-23T04:03:36.941Z,1005.78
2018-08-23T04:04:36.931Z,1005.79
2018-08-23T04:05:36.924Z,1005.78
2018-08-23T04:06:36.907Z,1005.75
2018-08-23T04:07:36.895Z,1005.76
2018-08-23T04:08:36.890Z,1005.72
2018-08-23T04:09:36.876Z,1005.76
2018-08-23T04:10:36.864Z,1005.76
2018-08-23T04:11:36.854Z,1005.73
2018-08-23T04:12:36.841Z,1005.71
2018-08-23T04:13:36.833Z,1005.7
2018-08-23T04:14:36.821Z,1005.74
2018-08-23T04:15:36.808Z,1005.69
2018-08-23T04:16:36.797Z,1005.67
2018-08-23T04:17:36.787Z,1005.68
2018-08-23T04:18:36.776Z,1005.69
2018-08-23T04:19:36.764Z,1005.67
2018-08-23T04:20:36.754Z,1005.68
2018-08-23T04:21:36.741Z,1005.71
2018-08-23T04:22:36.730Z,1005.72
2018-08-23T04:23:36.725Z,1005.74
2018-08-23T04:24:36.709Z,1005.72
2018-08-23T04:25:36.697Z,1005.71
2018-08-23T04:26:36.685Z,1005.66
2018-08-23T04:27:36.675Z,1005.67
2018-08-23T04:28:36.664Z,1005.66
2018-08-23T04:29:36.656Z,1005.68
2018-08-23T04:30:36.642Z,1005.64
2018-08-23T04:31:36.629Z,1005.65
2018-08-23T04:32:36.637Z,1005.67
2018-08-23T04:33:36.610Z,1005.67
2018-08-23T04:34:36.596Z,1005.68
2018-08-23T04:35:36.589Z,1005.69
2018-08-23T04:36:36.576Z,1005.73
2018-08-23T04:37:36.563Z,1005.71
2018-08-23T04:38:36.553Z,1005.68
2018-08-23T04:39:36.543Z,1005.66
2018-08-23T04:40:36.528Z,1005.63
2018-08-23T04:41:36.517Z,1005.64
2018-08-23T04:42:36.505Z,1005.63
2018-08-23T04:43:36.496Z,1005.61
2018-08-23T04:44:36.483Z,1005.61
2018-08-23T04:45:36.472Z,1005.56
2018-08-23T04:46:36.459Z,1005.57
2018-08-23T04:47:36.450Z,1005.58
2018-08-23T04:48:36.439Z,1005.54
2018-08-23T04:49:36.428Z,1005.57
2018-08-23T04:50:36.427Z,1005.57
2018-08-23T04:51:36.423Z,1005.53
2018-08-23T04:52:36.394Z,1005.5
2018-08-23T04:53:36.385Z,1005.52
2018-08-23T04:54:36.372Z,1005.5
2018-08-23T04:55:36.361Z,1005.54
2018-08-23T04:56:36.349Z,1005.55
2018-08-23T04:57:36.337Z,1005.53
2018-08-23T04:58:36.328Z,1005.55
2018-08-23T04:59:36.318Z,1005.53
2018-08-23T05:00:36.304Z,1005.55
2018-08-23T05:01:36.298Z,1005.52
2018-08-23T05:02:36.282Z,1005.54
2018-08-23T05:03:36.270Z,1005.5
2018-08-23T05:04:36.261Z,1005.5
2018-08-23T05:05:36.246Z,1005.47
2018-08-23T05:06:36.238Z,1005.41
2018-08-23T05:07:36.230Z,1005.47
2018-08-23T05:08:36.214Z,1005.44
2018-08-23T05:09:36.205Z,1005.46
2018-08-23T05:10:36.190Z,1005.47
2018-08-23T05:11:36.179Z,1005.47
2018-08-23T05:12:36.170Z,1005.47
2018-08-23T05:13:36.157Z,1005.41
2018-08-23T05:14:36.147Z,1005.44
2018-08-23T05:15:36.135Z,1005.43
2018-08-23T05:16:36.127Z,1005.45
2018-08-23T05:17:36.111Z,1005.43
2018-08-23T05:18:36.107Z,1005.4
2018-08-23T05:19:36.096Z,1005.43
2018-08-23T05:20:36.079Z,1005.42
2018-08-23T05:21:36.068Z,1005.42
2018-08-23T05:22:36.056Z,1005.43
2018-08-23T05:23:36.042Z,1005.41
2018-08-23T05:24:36.037Z,1005.38
2018-08-23T05:25:36.022Z,1005.45
2018-08-23T05:26:36.012Z,1005.44
2018-08-23T05:27:35.998Z,1005.46
2018-08-23T05:28:35.989Z,1005.45
2018-08-23T05:29:35.976Z,1005.42
2018-08-23T05:30:35.965Z,1005.47
2018-08-23T05:31:35.954Z,1005.46
2018-08-23T05:32:35.944Z,1005.51
2018-08-23T05:33:35.933Z,1005.46
2018-08-23T05:34:35.920Z,1005.48
2018-08-23T05:35:35.909Z,1005.44
2018-08-23T05:36:35.897Z,1005.45
2018-08-23T05:37:35.888Z,1005.48
2018-08-23T05:38:35.878Z,1005.47
2018-08-23T05:39:35.864Z,1005.48
2018-08-23T05:40:35.851Z,1005.46
2018-08-23T05:41:35.841Z,1005.48
2018-08-23T05:42:35.830Z,1005.48
2018-08-23T05:43:35.818Z,1005.46
2018-08-23T05:44:35.808Z,1005.5
2018-08-23T05:45:35.798Z,1005.41
2018-08-23T05:46:35.787Z,1005.42
2018-08-23T05:47:35.815Z,1005.46
2018-08-23T05:48:35.764Z,1005.39
2018-08-23T05:49:35.755Z,1005.45
2018-08-23T05:50:35.741Z,1005.44
2018-08-23T05:51:35.733Z,1005.43
2018-08-23T05:52:35.719Z,1005.45
2018-08-23T05:53:35.709Z,1005.4
2018-08-23T05:54:35.697Z,1005.38
2018-08-23T05:55:35.687Z,1005.4
2018-08-23T05:56:35.678Z,1005.39
2018-08-23T05:57:35.666Z,1005.36
2018-08-23T05:58:35.655Z,1005.37
2018-08-23T05:59:35.643Z,1005.4
2018-08-23T06:00:35.634Z,1005.37
2018-08-23T06:01:35.626Z,1005.36
2018-08-23T06:02:35.645Z,1005.39
2018-08-23T06:03:35.601Z,1005.34
2018-08-23T06:04:35.589Z,1005.37
2018-08-23T06:05:35.582Z,1005.34
2018-08-23T06:06:35.567Z,1005.34
2018-08-23T06:07:35.556Z,1005.34
2018-08-23T06:08:35.546Z,1005.36
2018-08-23T06:09:35.584Z,1005.38
2018-08-23T06:10:35.522Z,1005.39
2018-08-23T06:11:35.513Z,1005.39
2018-08-23T06:12:35.502Z,1005.36
2018-08-23T06:13:35.491Z,1005.35
2018-08-23T06:14:35.480Z,1005.36
2018-08-23T06:15:35.471Z,1005.39
2018-08-23T06:16:35.459Z,1005.4
2018-08-23T06:17:35.447Z,1005.33
2018-08-23T06:18:35.438Z,1005.35
2018-08-23T06:19:35.428Z,1005.37
2018-08-23T06:20:35.554Z,1005.4
2018-08-23T06:21:35.410Z,1005.4
2018-08-23T06:22:35.396Z,1005.39
2018-08-23T06:23:35.384Z,1005.45
2018-08-23T06:24:35.376Z,1005.41
2018-08-23T06:25:35.365Z,1005.42
2018-08-23T06:26:35.358Z,1005.38
2018-08-23T06:27:35.447Z,1005.42
2018-08-23T06:28:35.335Z,1005.4
2018-08-23T06:29:35.328Z,1005.43
2018-08-23T06:30:35.313Z,1005.47
2018-08-23T06:31:35.305Z,1005.43
2018-08-23T06:32:35.293Z,1005.43
2018-08-23T06:33:35.471Z,1005.43
2018-08-23T06:34:35.275Z,1005.43
2018-08-23T06:35:35.321Z,1005.46
2018-08-23T06:36:35.251Z,1005.47
2018-08-23T06:37:35.248Z,1005.43
2018-08-23T06:38:35.293Z,1005.44
2018-08-23T06:39:35.219Z,1005.42
2018-08-23T06:40:35.208Z,1005.43
2018-08-23T06:41:35.200Z,1005.41
2018-08-23T06:42:35.196Z,1005.41
2018-08-23T06:43:35.184Z,1005.41
2018-08-23T06:44:35.296Z,1005.47
2018-08-23T06:45:35.158Z,1005.47
2018-08-23T06:46:35.150Z,1005.46
2018-08-23T06:47:35.140Z,1005.41
2018-08-23T06:48:35.131Z,1005.47
2018-08-23T06:49:35.119Z,1005.46
2018-08-23T06:50:35.109Z,1005.45
2018-08-23T06:51:35.100Z,1005.44
2018-08-23T06:52:35.089Z,1005.46
2018-08-23T06:53:35.081Z,1005.45
2018-08-23T06:54:35.275Z,1005.45
2018-08-23T06:55:35.065Z,1005.43
2018-08-23T06:56:35.054Z,1005.46
2018-08-23T06:57:35.042Z,1005.44
2018-08-23T06:58:35.036Z,1005.46
2018-08-23T06:59:35.024Z,1005.5
2018-08-23T07:00:35.014Z,1005.54
2018-08-23T07:01:35.010Z,1005.5
2018-08-23T07:02:34.995Z,1005.52
2018-08-23T07:03:34.987Z,1005.52
2018-08-23T07:04:34.978Z,1005.52
2018-08-23T07:05:35.037Z,1005.55
2018-08-23T07:06:34.969Z,1005.5
2018-08-23T07:07:34.951Z,1005.49
2018-08-23T07:08:34.939Z,1005.48
2018-08-23T07:09:34.930Z,1005.47
2018-08-23T07:10:34.950Z,1005.47
2018-08-23T07:11:34.946Z,1005.44
2018-08-23T07:12:34.905Z,1005.46
2018-08-23T07:13:34.894Z,1005.45
2018-08-23T07:14:34.885Z,1005.42
2018-08-23T07:15:34.875Z,1005.4
2018-08-23T07:16:34.869Z,1005.39
2018-08-23T07:17:34.860Z,1005.4
2018-08-23T07:18:34.848Z,1005.42
2018-08-23T07:19:34.841Z,1005.37
2018-08-23T07:20:34.829Z,1005.39
2018-08-23T07:21:34.822Z,1005.39
2018-08-23T07:22:34.862Z,1005.41
2018-08-23T07:23:34.801Z,1005.42
2018-08-23T07:24:34.795Z,1005.4
2018-08-23T07:25:34.785Z,1005.38
2018-08-23T07:26:34.803Z,1005.38
2018-08-23T07:27:34.764Z,1005.38
2018-08-23T07:28:34.759Z,1005.4
2018-08-23T07:29:34.750Z,1005.43
2018-08-23T07:30:34.741Z,1005.42
2018-08-23T07:31:34.731Z,1005.41
2018-08-23T07:32:34.722Z,1005.43
2018-08-23T07:33:34.711Z,1005.45
2018-08-23T07:34:34.702Z,1005.43
2018-08-23T07:35:34.694Z,1005.42
2018-08-23T07:36:34.685Z,1005.45
2018-08-23T07:37:34.675Z,1005.41
2018-08-23T07:38:34.667Z,1005.39
2018-08-23T07:39:34.658Z,1005.4
2018-08-23T07:40:34.667Z,1005.42
2018-08-23T07:41:34.638Z,1005.45
2018-08-23T07:42:34.629Z,1005.41
2018-08-23T07:43:34.620Z,1005.41
2018-08-23T07:44:34.611Z,1005.4
2018-08-23T07:45:34.602Z,1005.33
2018-08-23T07:46:34.593Z,1005.35
2018-08-23T07:47:34.582Z,1005.3
2018-08-23T07:48:34.683Z,1005.28
2018-08-23T07:49:34.566Z,1005.26
2018-08-23T07:50:34.561Z,1005.38
2018-08-23T07:51:34.548Z,1005.33
2018-08-23T07:52:34.557Z,1005.32
2018-08-23T07:53:34.531Z,1005.34
2018-08-23T07:54:34.525Z,1005.28
2018-08-23T07:55:34.511Z,1005.27
2018-08-23T07:56:34.503Z,1005.28
2018-08-23T07:57:34.494Z,1005.27
2018-08-23T07:58:34.491Z,1005.3
2018-08-23T07:59:34.477Z,1005.27
2018-08-23T08:00:34.471Z,1005.3
2018-08-23T08:01:34.459Z,1005.27
2018-08-23T08:02:34.452Z,1005.28
2018-08-23T08:03:34.442Z,1005.29
2018-08-23T08:04:34.436Z,1005.31
2018-08-23T08:05:34.424Z,1005.31
2018-08-23T08:06:34.418Z,1005.29
2018-08-23T08:07:34.407Z,1005.3
2018-08-23T08:08:34.399Z,1005.3
2018-08-23T08:09:34.391Z,1005.3
2018-08-23T08:10:34.384Z,1005.27
2018-08-23T08:11:34.373Z,1005.32
2018-08-23T08:12:34.368Z,1005.26
2018-08-23T08:13:34.359Z,1005.28
2018-08-23T08:14:34.351Z,1005.29
2018-08-23T08:15:34.341Z,1005.33
2018-08-23T08:16:34.332Z,1005.32
2018-08-23T08:17:34.322Z,1005.37
2018-08-23T08:18:34.313Z,1005.39
2018-08-23T08:19:34.356Z,1005.36
2018-08-23T08:20:34.298Z,1005.39
2018-08-23T08:21:34.303Z,1005.42
2018-08-23T08:22:34.282Z,1005.36
2018-08-23T08:23:34.273Z,1005.33
2018-08-23T08:24:34.263Z,1005.36
2018-08-23T08:25:34.260Z,1005.39
2018-08-23T08:26:34.264Z,1005.39
2018-08-23T08:27:34.241Z,1005.38
2018-08-23T08:28:34.232Z,1005.37
2018-08-23T08:29:34.224Z,1005.34
2018-08-23T08:30:34.222Z,1005.33
2018-08-23T08:31:34.209Z,1005.36
2018-08-23T08:32:34.200Z,1005.38
2018-08-23T08:33:34.194Z,1005.34
2018-08-23T08:34:34.235Z,1005.33
2018-08-23T08:35:34.177Z,1005.34
2018-08-23T08:36:34.176Z,1005.34
2018-08-23T08:37:34.162Z,1005.31
2018-08-23T08:38:34.158Z,1005.3
2018-08-23T08:39:34.146Z,1005.34
2018-08-23T08:40:34.139Z,1005.31
2018-08-23T08:41:34.132Z,1005.28
2018-08-23T08:42:34.123Z,1005.26
2018-08-23T08:43:34.119Z,1005.3
2018-08-23T08:44:34.161Z,1005.31
2018-08-23T08:45:34.108Z,1005.28
2018-08-23T08:46:34.100Z,1005.29
2018-08-23T08:47:34.089Z,1005.28
2018-08-23T08:48:34.092Z,1005.28
2018-08-23T08:49:34.082Z,1005.27
2018-08-23T08:50:34.105Z,1005.23
2018-08-23T08:51:34.063Z,1005.26
2018-08-23T08:52:34.056Z,1005.21
2018-08-23T08:53:34.050Z,1005.2
2018-08-23T08:54:34.244Z,1005.18
2018-08-23T08:55:34.030Z,1005.17
2018-08-23T08:56:34.027Z,1005.17
2018-08-23T08:57:34.017Z,1005.13
2018-08-23T08:58:34.008Z,1005.14
2018-08-23T08:59:34.005Z,1005.14
2018-08-23T09:00:33.996Z,1005.17
2018-08-23T09:01:33.992Z,1005.13
2018-08-23T09:02:33.983Z,1005.27
2018-08-23T09:03:33.978Z,1005.17
2018-08-23T09:04:33.971Z,1005.15
2018-08-23T09:05:33.960Z,1005.1
2018-08-23T09:06:33.953Z,1005.12
2018-08-23T09:07:33.949Z,1005.12
2018-08-23T09:08:33.942Z,1005.11
2018-08-23T09:09:33.933Z,1005.14
2018-08-23T09:10:33.931Z,1005.13
2018-08-23T09:11:33.921Z,1005.13
2018-08-23T09:12:33.911Z,1005.11
2018-08-23T09:13:33.905Z,1005.06
2018-08-23T09:14:33.903Z,1005.11
2018-08-23T09:15:33.896Z,1005.1
2018-08-23T09:16:33.889Z,1005.05
2018-08-23T09:17:33.879Z,1005.07
2018-08-23T09:18:33.925Z,1005.06
2018-08-23T09:19:33.866Z,1005.05
2018-08-23T09:20:33.930Z,1005.02
2018-08-23T09:21:33.861Z,1004.95
2018-08-23T09:22:33.846Z,1004.97
2018-08-23T09:23:33.839Z,1004.98
2018-08-23T09:24:33.834Z,1004.99
2018-08-23T09:25:33.830Z,1004.91
2018-08-23T09:26:33.821Z,1004.93
2018-08-23T09:27:33.816Z,1004.89
2018-08-23T09:28:33.808Z,1004.93
2018-08-23T09:29:33.803Z,1004.93
2018-08-23T09:30:33.810Z,1004.92
2018-08-23T09:31:33.791Z,1004.88
2018-08-23T09:32:33.783Z,1004.93
2018-08-23T09:33:33.779Z,1004.88
2018-08-23T09:34:33.774Z,1004.89
2018-08-23T09:35:33.769Z,1004.91
2018-08-23T09:36:33.762Z,1004.85
2018-08-23T09:37:33.756Z,1004.91
2018-08-23T09:38:33.747Z,1004.89
2018-08-23T09:39:33.742Z,1004.92
2018-08-23T09:40:33.737Z,1004.88
2018-08-23T09:41:33.737Z,1004.96
2018-08-23T09:42:33.723Z,1004.9
2018-08-23T09:43:33.723Z,1004.9
2018-08-23T09:44:33.711Z,1004.85
2018-08-23T09:45:33.705Z,1004.85
2018-08-23T09:46:33.707Z,1004.81
2018-08-23T09:47:33.696Z,1004.86
2018-08-23T09:48:33.685Z,1004.85
2018-08-23T09:49:33.691Z,1004.83
2018-08-23T09:50:33.723Z,1004.85
2018-08-23T09:51:33.669Z,1004.84
2018-08-23T09:52:33.661Z,1004.84
2018-08-23T09:53:33.659Z,1004.76
2018-08-23T09:54:33.650Z,1004.78
2018-08-23T09:55:33.646Z,1004.73
2018-08-23T09:56:33.640Z,1004.74
2018-08-23T09:57:33.632Z,1004.73
2018-08-23T09:58:33.628Z,1004.72
2018-08-23T09:59:33.621Z,1004.69
2018-08-23T10:00:33.615Z,1004.66
2018-08-23T10:01:33.608Z,1004.67
2018-08-23T10:02:33.604Z,1004.7
2018-08-23T10:03:33.597Z,1004.65
2018-08-23T10:04:33.603Z,1004.68
2018-08-23T10:05:33.582Z,1004.67
2018-08-23T10:06:33.580Z,1004.72
2018-08-23T10:07:33.572Z,1004.7
2018-08-23T10:08:33.566Z,1004.7
2018-08-23T10:09:33.560Z,1004.62
2018-08-23T10:10:33.604Z,1004.61
2018-08-23T10:11:33.668Z,1004.66
2018-08-23T10:12:33.548Z,1004.7
2018-08-23T10:13:33.539Z,1004.6
2018-08-23T10:14:33.533Z,1004.64
2018-08-23T10:15:33.525Z,1004.67
2018-08-23T10:16:33.520Z,1004.6
2018-08-23T10:17:33.514Z,1004.66
2018-08-23T10:18:33.507Z,1004.66
2018-08-23T10:19:33.502Z,1004.6
2018-08-23T10:20:33.497Z,1004.64
2018-08-23T10:21:33.490Z,1004.57
2018-08-23T10:22:33.488Z,1004.6
2018-08-23T10:23:33.487Z,1004.58
2018-08-23T10:24:33.483Z,1004.61
2018-08-23T10:25:33.469Z,1004.56
2018-08-23T10:26:33.505Z,1004.55
2018-08-23T10:27:33.461Z,1004.52
2018-08-23T10:28:33.454Z,1004.48
2018-08-23T10:29:33.448Z,1004.46
2018-08-23T10:30:33.447Z,1004.45
2018-08-23T10:31:33.443Z,1004.46
2018-08-23T10:32:33.434Z,1004.5
2018-08-23T10:33:33.427Z,1004.45
2018-08-23T10:34:33.421Z,1004.46
2018-08-23T10:35:33.419Z,1004.46
2018-08-23T10:36:33.410Z,1004.42
2018-08-23T10:37:33.404Z,1004.44
2018-08-23T10:38:33.400Z,1004.43
2018-08-23T10:39:33.395Z,1004.49
2018-08-23T10:40:33.391Z,1004.43
2018-08-23T10:41:33.386Z,1004.47
2018-08-23T10:42:33.384Z,1004.43
2018-08-23T10:43:33.374Z,1004.4
2018-08-23T10:44:33.430Z,1004.42
2018-08-23T10:45:33.364Z,1004.46
2018-08-23T10:46:33.359Z,1004.48
2018-08-23T10:47:33.355Z,1004.46
2018-08-23T10:48:33.351Z,1004.51
2018-08-23T10:49:33.347Z,1004.46
2018-08-23T10:50:33.396Z,1004.42
2018-08-23T10:51:33.334Z,1004.58
2018-08-23T10:52:33.330Z,1004.4
2018-08-23T10:53:33.326Z,1004.41
2018-08-23T10:54:33.521Z,1004.4
2018-08-23T10:55:33.315Z,1004.39
2018-08-23T10:56:33.313Z,1004.37
2018-08-23T10:57:33.308Z,1004.44
2018-08-23T10:58:33.308Z,1004.39
2018-08-23T10:59:33.296Z,1004.34
2018-08-23T11:00:33.290Z,1004.47
2018-08-23T11:01:33.283Z,1004.25
2018-08-23T11:02:33.280Z,1004.25
2018-08-23T11:03:33.274Z,1004.24
2018-08-23T11:04:33.269Z,1004.26
2018-08-23T11:05:33.267Z,1004.31
2018-08-23T11:06:33.258Z,1004.36
2018-08-23T11:07:33.255Z,1004.53
2018-08-23T11:08:33.249Z,1004.43
2018-08-23T11:09:33.245Z,1004.45
2018-08-23T11:10:33.243Z,1004.51
2018-08-23T11:11:33.236Z,1004.47
2018-08-23T11:12:33.229Z,1004.49
2018-08-23T11:13:33.227Z,1004.48
2018-08-23T11:14:33.223Z,1004.52
2018-08-23T11:15:33.220Z,1004.49
2018-08-23T11:16:33.234Z,1004.55
2018-08-23T11:17:33.212Z,1004.49
2018-08-23T11:18:33.210Z,1004.54
2018-08-23T11:19:33.207Z,1004.49
2018-08-23T11:20:33.202Z,1004.59
2018-08-23T11:21:33.202Z,1004.5
2018-08-23T11:22:33.203Z,1004.52
2018-08-23T11:23:33.201Z,1004.49
2018-08-23T11:24:33.199Z,1004.47
2018-08-23T11:25:33.197Z,1004.44
2018-08-23T11:26:33.199Z,1004.48
2018-08-23T11:27:33.196Z,1004.47
2018-08-23T11:28:33.200Z,1004.37
2018-08-23T11:29:33.224Z,1004.48
2018-08-23T11:30:33.203Z,1004.46
2018-08-23T11:31:33.204Z,1004.47
2018-08-23T11:32:33.204Z,1004.45
2018-08-23T11:33:33.213Z,1004.39
2018-08-23T11:34:33.214Z,1004.38
2018-08-23T11:35:33.208Z,1004.39
2018-08-23T11:36:33.215Z,1004.35
2018-08-23T11:37:33.215Z,1004.44
2018-08-23T11:38:33.217Z,1004.52
2018-08-23T11:39:33.221Z,1004.32
2018-08-23T11:40:33.225Z,1004.3
2018-08-23T11:41:33.227Z,1004.49
2018-08-23T11:42:33.243Z,1004.5
2018-08-23T11:43:33.233Z,1004.49
2018-08-23T11:44:33.235Z,1004.42
2018-08-23T11:45:33.239Z,1004.46
2018-08-23T11:46:33.241Z,1004.37
2018-08-23T11:47:33.244Z,1004.25
2018-08-23T11:48:33.249Z,1004.39
2018-08-23T11:49:33.251Z,1004.32
2018-08-23T11:50:33.262Z,1004.28
2018-08-23T11:51:33.258Z,1004.33
2018-08-23T11:52:33.261Z,1004.31
2018-08-23T11:53:33.506Z,1004.26
2018-08-23T11:54:33.268Z,1004.28
2018-08-23T11:55:33.273Z,1004.32
2018-08-23T11:56:33.276Z,1004.34
2018-08-23T11:57:33.278Z,1004.33
2018-08-23T11:58:33.370Z,1004.31
2018-08-23T11:59:33.287Z,1004.33
2018-08-23T12:00:33.291Z,1004.36
2018-08-23T12:01:33.295Z,1004.37
2018-08-23T12:02:33.307Z,1004.28
2018-08-23T12:03:33.304Z,1004.26
2018-08-23T12:04:33.306Z,1004.25
2018-08-23T12:05:33.312Z,1004.24
2018-08-23T12:06:33.373Z,1004.19
2018-08-23T12:07:33.320Z,1004.03
2018-08-23T12:08:33.329Z,1004.15